SANTA FE DAM CA US current weather conditions

sailwx.info

Wind from 212 at 2 knots gusting 5

Air temperature 21.1° C
Dewpoint 19.0° C

Last reported at 2014-Sep-01 05:57 UTC.
Time now 2014-Sep-01 07:46 UTC

Location: N 34°08' W 117°57'.
View on Google Maps.

See reports from other nearby stations

  
Tides and Currents Weather Stations Pressure Air Temp Water Temp Dewpoint Dewpoint Depression Visibility Wind Speed Wind Dir Waves Ship Positions
date/time (UTC)wind fromknots sea level pressurealtimeterstation pressurevisibilityair tempwater tempwave heightnotes
2014-Sep-01 05:57 212 2 gusting 5 21.1
2014-Sep-01 04:57 229 2 gusting 4 22.8
2014-Sep-01 03:57 189 2 gusting 5 24.4
2014-Sep-01 02:57 235 3 gusting 7 26.1
2014-Sep-01 01:57 227 5 gusting 11 29.4
2014-Sep-01 00:57 210 6 gusting 13 31.7
2014-Aug-31 23:57 223 6 gusting 14 33.9
2014-Aug-31 22:57 218 6 gusting 13 35.0
2014-Aug-31 21:57 210 6 gusting 15 35.0
2014-Aug-31 20:57 339 6 gusting 13 35.6
2014-Aug-31 19:57 252 6 gusting 12 33.9
2014-Aug-31 18:57 210 2 gusting 8 33.9
2014-Aug-31 17:57 042 3 gusting 8 31.1
2014-Aug-31 16:57 274 4 gusting 8 26.7
2014-Aug-31 15:57 203 2 gusting 6 25.6
2014-Aug-31 14:57 240 2 gusting 6 22.2
2014-Aug-31 13:57 267 2 gusting 4 18.3
2014-Aug-31 12:57 272 2 gusting 5 18.3
2014-Aug-31 11:57 272 2 gusting 3 19.4
2014-Aug-31 10:57 356 0 gusting 4 18.3
2014-Aug-31 09:57 252 3 gusting 5 19.4
2014-Aug-31 08:57 254 3 gusting 6 20.6
2014-Aug-31 07:57 265 3 gusting 6 21.1
2014-Aug-31 06:57 245 2 gusting 4 21.7
2014-Aug-31 05:57 234 1 gusting 4 22.8
2014-Aug-31 04:57 203 2 gusting 5 23.9
2014-Aug-31 03:57 213 2 gusting 4 25.6
2014-Aug-31 02:57 237 2 gusting 7 26.7
2014-Aug-31 01:57 224 5 gusting 10 30.6
2014-Aug-31 00:57 226 6 gusting 12 33.9
2014-Aug-30 23:57 231 7 gusting 15 36.1
2014-Aug-30 22:57 223 6 gusting 13 37.2
2014-Aug-30 21:57 232 6 gusting 13 36.7
2014-Aug-30 20:57 225 6 gusting 11 36.1
2014-Aug-30 19:57 225 5 gusting 12 35.6
2014-Aug-30 18:57 234 5 gusting 10 32.8
2014-Aug-30 17:57 275 4 gusting 8 30.6
2014-Aug-30 16:57 225 4 gusting 7 27.8
2014-Aug-30 15:57 275 2 gusting 6 26.1
2014-Aug-30 14:57 103 1 gusting 3 21.7
2014-Aug-30 13:57 056 0 gusting 3 16.1
2014-Aug-30 12:57 023 0 gusting 3 15.0
2014-Aug-30 11:57 353 1 gusting 2 15.6
2014-Aug-30 10:57 306 1 gusting 2 16.1
2014-Aug-30 09:57 297 0 gusting 2 16.7
2014-Aug-30 08:57 240 2 gusting 3 19.4
2014-Aug-30 07:57 256 2 gusting 4 20.0